Time;durP1;ratioP1;P1;durP2;ratioP2;P2;SDS_P1;SDS_P2;PMS_P1;PMS_P2;Temp;Humidity;BMP_temperature;BMP_pressure;BME280_temperature;BME280_humidity;BME280_pressure;Samples;Min_cycle;Max_cycle;Signal;HPM_P1;HPM_P2
2024/03/11 00:00:30;;;;;;;8.67;3.80;;;;;;;;;;6130705;23;20166;-77
2024/03/11 00:02:57;;;;;;;12.10;3.63;;;;;;;;;;6156001;23;20167;-78
2024/03/11 00:05:26;;;;;;;7.80;3.63;;;;;;;;;;6155895;23;20251;-78
2024/03/11 00:07:56;;;;;;;12.70;3.90;;;;;;;;;;6156332;23;20647;-77
2024/03/11 00:10:24;;;;;;;8.53;4.00;;;;;;;;;;6156186;23;20204;-78
2024/03/11 00:12:53;;;;;;;8.93;4.03;;;;;;;;;;6155954;23;20227;-78
2024/03/11 00:15:20;;;;;;;8.63;4.10;;;;;;;;;;6155936;23;20540;-81
2024/03/11 00:17:49;;;;;;;8.77;4.10;;;;;;;;;;6155631;23;20165;-78
2024/03/11 00:20:17;;;;;;;12.33;4.37;;;;;;;;;;6156059;23;20179;-77
2024/03/11 00:22:45;;;;;;;8.80;4.70;;;;;;;;;;6156046;23;20176;-79
2024/03/11 00:25:12;;;;;;;10.70;4.80;;;;;;;;;;6155765;23;20642;-78
2024/03/11 00:27:39;;;;;;;9.63;4.07;;;;;;;;;;6155811;23;20194;-78
2024/03/11 00:30:11;;;;;;;8.90;4.23;;;;;;;;;;6156123;23;20191;-78
2024/03/11 00:32:39;;;;;;;8.97;4.00;;;;;;;;;;6155933;23;20168;-78
2024/03/11 00:35:06;;;;;;;7.93;4.07;;;;;;;;;;6155945;23;20164;-78
2024/03/11 00:37:33;;;;;;;7.27;4.30;;;;;;;;;;6155845;23;20196;-78
2024/03/11 00:40:01;;;;;;;9.80;4.50;;;;;;;;;;6156031;23;20244;-78
2024/03/11 00:42:28;;;;;;;8.07;4.60;;;;;;;;;;6129629;23;20566;-78
2024/03/11 00:44:56;;;;;;;8.03;4.40;;;;;;;;;;6155514;23;20261;-78
2024/03/11 00:47:23;;;;;;;8.27;4.50;;;;;;;;;;6155520;23;20172;-77
2024/03/11 00:49:51;;;;;;;9.60;4.27;;;;;;;;;;6155589;23;20173;-78
2024/03/11 00:52:18;;;;;;;9.77;4.57;;;;;;;;;;6155674;23;20186;-78
2024/03/11 00:54:46;;;;;;;10.77;5.00;;;;;;;;;;6155603;23;20185;-80
2024/03/11 00:57:14;;;;;;;8.93;4.03;;;;;;;;;;6155381;23;20230;-78
2024/03/11 00:59:41;;;;;;;8.00;4.60;;;;;;;;;;6155535;23;20218;-77
2024/03/11 01:02:12;;;;;;;9.33;4.50;;;;;;;;;;6155760;23;20153;-78
2024/03/11 01:04:42;;;;;;;7.67;4.67;;;;;;;;;;6155367;23;20267;-78
2024/03/11 01:07:09;;;;;;;6.83;4.30;;;;;;;;;;6155935;23;20604;-78
2024/03/11 01:09:51;;;;;;;9.67;4.50;;;;;;;;;;6155658;23;20172;-78
2024/03/11 01:12:19;;;;;;;9.77;4.50;;;;;;;;;;6155913;23;20168;-78
2024/03/11 01:14:48;;;;;;;7.33;4.30;;;;;;;;;;6155471;23;20190;-77
2024/03/11 01:17:16;;;;;;;7.70;4.47;;;;;;;;;;6155732;23;20244;-77
2024/03/11 01:19:44;;;;;;;8.60;4.23;;;;;;;;;;6155262;23;20277;-77
2024/03/11 01:22:18;;;;;;;8.87;4.40;;;;;;;;;;6155344;23;20174;-80
2024/03/11 01:24:46;;;;;;;6.33;4.43;;;;;;;;;;6155786;23;20184;-78
2024/03/11 01:27:14;;;;;;;6.93;3.90;;;;;;;;;;6155720;23;20172;-77
2024/03/11 01:29:42;;;;;;;8.97;4.23;;;;;;;;;;6155417;23;20168;-78
2024/03/11 01:32:11;;;;;;;7.13;4.10;;;;;;;;;;6155434;23;20164;-78
2024/03/11 01:34:41;;;;;;;13.07;5.10;;;;;;;;;;6155722;23;20178;-78
2024/03/11 01:37:08;;;;;;;8.90;4.13;;;;;;;;;;6155449;23;20163;-78
2024/03/11 01:39:42;;;;;;;8.03;4.43;;;;;;;;;;6155335;23;20164;-79
2024/03/11 01:42:17;;;;;;;7.53;4.57;;;;;;;;;;6155902;23;20190;-78
2024/03/11 01:44:48;;;;;;;7.03;4.27;;;;;;;;;;6155359;23;20709;-77
2024/03/11 01:47:17;;;;;;;10.27;4.60;;;;;;;;;;6155437;23;20172;-78
2024/03/11 01:49:45;;;;;;;7.50;4.30;;;;;;;;;;6155224;23;20660;-78
2024/03/11 01:52:18;;;;;;;6.20;4.70;;;;;;;;;;6155650;23;20641;-78
2024/03/11 01:54:46;;;;;;;6.80;4.50;;;;;;;;;;6155453;23;20167;-78
2024/03/11 01:57:15;;;;;;;7.03;4.63;;;;;;;;;;6155320;23;20169;-78
2024/03/11 01:59:45;;;;;;;5.67;4.30;;;;;;;;;;6155249;23;20483;-78
2024/03/11 02:02:12;;;;;;;9.47;4.77;;;;;;;;;;6155364;23;20216;-78
2024/03/11 02:04:43;;;;;;;7.90;4.40;;;;;;;;;;6155223;23;20191;-77
2024/03/11 02:07:14;;;;;;;6.83;4.43;;;;;;;;;;6129913;23;20166;-78
2024/03/11 02:09:42;;;;;;;7.10;4.10;;;;;;;;;;6156435;23;20173;-78
2024/03/11 02:12:10;;;;;;;7.03;4.57;;;;;;;;;;6156984;23;20171;-77
2024/03/11 02:14:38;;;;;;;8.67;4.83;;;;;;;;;;6154931;23;20502;-78
2024/03/11 02:17:05;;;;;;;7.40;4.70;;;;;;;;;;6156990;23;20234;-79
2024/03/11 02:19:33;;;;;;;7.50;4.70;;;;;;;;;;6156937;23;20242;-77
2024/03/11 02:22:04;;;;;;;7.73;5.20;;;;;;;;;;6157375;23;20160;-78
2024/03/11 02:24:31;;;;;;;5.03;4.10;;;;;;;;;;6156885;23;20697;-77
2024/03/11 02:26:59;;;;;;;8.23;4.80;;;;;;;;;;6157006;23;20169;-78
2024/03/11 02:29:27;;;;;;;8.37;4.87;;;;;;;;;;6155723;23;20193;-78
2024/03/11 02:31:54;;;;;;;8.90;5.20;;;;;;;;;;6154782;23;20668;-78
2024/03/11 02:34:21;;;;;;;6.93;4.63;;;;;;;;;;6128818;23;20722;-79
2024/03/11 02:36:50;;;;;;;7.27;4.80;;;;;;;;;;6154802;23;20277;-78
2024/03/11 02:39:21;;;;;;;6.43;4.43;;;;;;;;;;6154774;23;20172;-78
2024/03/11 02:41:51;;;;;;;6.87;4.80;;;;;;;;;;6154826;23;20164;-78
2024/03/11 02:44:19;;;;;;;6.70;5.10;;;;;;;;;;6155016;23;20249;-78
2024/03/11 02:46:46;;;;;;;6.93;4.70;;;;;;;;;;6154903;23;20168;-77
2024/03/11 02:49:14;;;;;;;8.70;4.93;;;;;;;;;;6154978;23;20167;-78
2024/03/11 02:51:42;;;;;;;7.80;5.30;;;;;;;;;;6154773;23;20171;-77
2024/03/11 02:54:09;;;;;;;7.43;4.30;;;;;;;;;;6154945;23;20168;-77
2024/03/11 02:56:37;;;;;;;5.90;4.53;;;;;;;;;;6154877;23;20171;-78
2024/03/11 02:59:05;;;;;;;9.93;5.30;;;;;;;;;;6154967;23;20629;-77
2024/03/11 03:01:32;;;;;;;8.27;5.03;;;;;;;;;;6154622;23;20175;-77
2024/03/11 03:03:59;;;;;;;6.60;4.60;;;;;;;;;;6154678;23;20163;-78
2024/03/11 03:06:28;;;;;;;8.50;4.90;;;;;;;;;;6154816;23;20197;-79
2024/03/11 03:08:56;;;;;;;6.63;4.33;;;;;;;;;;6154515;23;20167;-78
2024/03/11 03:11:24;;;;;;;8.67;4.77;;;;;;;;;;6154600;23;20167;-78
2024/03/11 03:13:51;;;;;;;7.50;4.80;;;;;;;;;;6154696;23;20175;-78
2024/03/11 03:16:19;;;;;;;7.63;4.67;;;;;;;;;;6154595;23;20174;-78
2024/03/11 03:18:46;;;;;;;7.17;4.60;;;;;;;;;;6154289;23;20215;-78
2024/03/11 03:21:13;;;;;;;6.93;4.73;;;;;;;;;;6154566;23;20160;-78
2024/03/11 03:23:41;;;;;;;5.67;4.67;;;;;;;;;;6154742;23;20167;-78
2024/03/11 03:26:10;;;;;;;7.80;4.73;;;;;;;;;;6154318;23;20198;-77
2024/03/11 03:28:37;;;;;;;6.87;4.70;;;;;;;;;;6154513;23;20217;-79
2024/03/11 03:31:05;;;;;;;8.27;4.73;;;;;;;;;;6154226;23;20696;-79
2024/03/11 03:33:33;;;;;;;5.90;4.47;;;;;;;;;;6154454;23;20191;-78
2024/03/11 03:36:02;;;;;;;7.57;4.90;;;;;;;;;;6154437;23;20222;-78
2024/03/11 03:38:30;;;;;;;7.43;4.73;;;;;;;;;;6154518;23;20242;-78
2024/03/11 03:40:58;;;;;;;6.57;4.77;;;;;;;;;;6154137;23;20218;-77
2024/03/11 03:43:25;;;;;;;7.43;4.93;;;;;;;;;;6154311;23;20167;-78
2024/03/11 03:45:53;;;;;;;7.33;4.87;;;;;;;;;;6154073;23;20243;-78
2024/03/11 03:48:21;;;;;;;6.83;4.77;;;;;;;;;;6154050;23;20174;-78
2024/03/11 03:50:49;;;;;;;6.63;4.60;;;;;;;;;;6154464;23;20167;-79
2024/03/11 03:53:18;;;;;;;7.00;4.60;;;;;;;;;;6154208;23;20622;-78
2024/03/11 03:55:45;;;;;;;5.60;4.27;;;;;;;;;;6127996;23;20571;-77
2024/03/11 03:58:12;;;;;;;4.93;4.43;;;;;;;;;;6154242;23;20163;-78
2024/03/11 04:00:39;;;;;;;5.87;4.00;;;;;;;;;;6154336;23;20167;-78
2024/03/11 04:03:06;;;;;;;4.53;4.10;;;;;;;;;;6154362;23;20177;-78
2024/03/11 04:05:34;;;;;;;5.00;3.90;;;;;;;;;;6154123;23;20692;-79
2024/03/11 04:08:01;;;;;;;5.07;4.20;;;;;;;;;;6154520;23;20619;-78
2024/03/11 04:10:29;;;;;;;5.60;4.20;;;;;;;;;;6154245;23;20189;-78
2024/03/11 04:12:58;;;;;;;4.83;3.80;;;;;;;;;;6154329;23;20167;-78
2024/03/11 04:15:25;;;;;;;5.37;3.73;;;;;;;;;;6154449;23;20454;-78
2024/03/11 04:17:56;;;;;;;5.00;4.03;;;;;;;;;;6153544;23;20170;-77
2024/03/11 04:20:24;;;;;;;4.63;3.77;;;;;;;;;;6154191;23;20154;-78
2024/03/11 04:22:51;;;;;;;5.53;3.77;;;;;;;;;;6154075;23;20246;-78
2024/03/11 04:25:21;;;;;;;4.17;3.53;;;;;;;;;;6153948;23;20179;-78
2024/03/11 04:27:50;;;;;;;4.30;3.60;;;;;;;;;;6153789;23;20202;-78
2024/03/11 04:30:21;;;;;;;6.53;4.00;;;;;;;;;;6155369;23;20167;-77
2024/03/11 04:32:52;;;;;;;7.33;3.97;;;;;;;;;;6129536;23;20174;-78
2024/03/11 04:35:24;;;;;;;5.10;4.23;;;;;;;;;;6155815;23;20221;-78
2024/03/11 04:37:53;;;;;;;6.10;4.20;;;;;;;;;;6155775;23;20155;-78
2024/03/11 04:40:22;;;;;;;7.80;4.40;;;;;;;;;;6155666;23;20167;-78
2024/03/11 04:42:49;;;;;;;5.60;4.03;;;;;;;;;;6155749;23;20194;-78
2024/03/11 04:45:17;;;;;;;5.20;4.07;;;;;;;;;;6155566;23;20191;-78
2024/03/11 04:47:44;;;;;;;6.27;4.53;;;;;;;;;;6155801;23;20194;-78
2024/03/11 04:50:13;;;;;;;7.23;4.60;;;;;;;;;;6156014;23;20171;-77
2024/03/11 04:52:40;;;;;;;7.10;4.73;;;;;;;;;;6155574;23;20575;-77
2024/03/11 04:55:07;;;;;;;6.60;4.43;;;;;;;;;;6129850;23;20167;-80
2024/03/11 04:57:34;;;;;;;5.70;4.30;;;;;;;;;;6155307;23;20612;-78
2024/03/11 05:00:04;;;;;;;7.43;4.80;;;;;;;;;;6155468;23;20170;-78
2024/03/11 05:02:35;;;;;;;7.37;4.63;;;;;;;;;;6156314;23;20169;-78
2024/03/11 05:05:03;;;;;;;4.97;4.23;;;;;;;;;;6155680;23;20187;-78
2024/03/11 05:07:31;;;;;;;5.47;3.90;;;;;;;;;;6155661;23;20696;-78
2024/03/11 05:09:59;;;;;;;5.13;4.33;;;;;;;;;;6155619;23;20163;-78
2024/03/11 05:12:26;;;;;;;4.57;4.13;;;;;;;;;;6155840;23;20171;-78
2024/03/11 05:14:54;;;;;;;5.00;3.93;;;;;;;;;;6155395;23;20170;-78
2024/03/11 05:17:21;;;;;;;5.47;4.10;;;;;;;;;;6155450;23;20561;-78
2024/03/11 05:19:49;;;;;;;8.43;7.00;;;;;;;;;;6154041;23;20206;-78
2024/03/11 05:22:16;;;;;;;9.10;6.70;;;;;;;;;;6155497;23;20171;-79
2024/03/11 05:24:43;;;;;;;6.40;5.00;;;;;;;;;;6155389;23;20218;-78
2024/03/11 05:27:11;;;;;;;4.27;3.87;;;;;;;;;;6155508;23;20163;-80
2024/03/11 05:29:38;;;;;;;5.07;3.93;;;;;;;;;;6155398;23;20174;-78
2024/03/11 05:32:05;;;;;;;6.87;4.20;;;;;;;;;;6155836;23;20227;-78
2024/03/11 05:34:32;;;;;;;5.17;3.97;;;;;;;;;;6155858;23;20174;-78
2024/03/11 05:37:00;;;;;;;4.40;3.87;;;;;;;;;;6155457;23;20186;-78
2024/03/11 05:39:27;;;;;;;4.30;3.90;;;;;;;;;;6155538;23;20289;-78
2024/03/11 05:41:55;;;;;;;4.60;4.20;;;;;;;;;;6155311;23;20248;-78
2024/03/11 05:44:22;;;;;;;3.80;3.40;;;;;;;;;;6155981;23;20163;-79
2024/03/11 05:46:49;;;;;;;4.10;3.70;;;;;;;;;;6157139;23;20662;-77
2024/03/11 05:49:17;;;;;;;4.50;3.80;;;;;;;;;;6157429;23;20171;-78
2024/03/11 05:51:44;;;;;;;4.83;3.70;;;;;;;;;;6157382;23;20186;-77
2024/03/11 05:54:17;;;;;;;3.53;3.23;;;;;;;;;;6157336;23;20167;-78
2024/03/11 05:56:53;;;;;;;3.23;2.93;;;;;;;;;;6157255;23;20167;-79
2024/03/11 05:59:23;;;;;;;4.00;3.60;;;;;;;;;;6157735;23;20555;-78
2024/03/11 06:01:51;;;;;;;3.67;3.37;;;;;;;;;;6157527;23;20186;-78
2024/03/11 06:04:19;;;;;;;3.47;3.13;;;;;;;;;;6157199;23;20240;-77
2024/03/11 06:06:47;;;;;;;3.40;3.10;;;;;;;;;;6157093;23;20179;-77
2024/03/11 06:09:16;;;;;;;3.00;2.80;;;;;;;;;;6157172;23;20531;-77
2024/03/11 06:11:44;;;;;;;3.73;3.33;;;;;;;;;;6157105;23;20171;-78
2024/03/11 06:14:14;;;;;;;5.70;3.43;;;;;;;;;;6157031;23;20171;-78
2024/03/11 06:16:42;;;;;;;4.13;3.73;;;;;;;;;;6156862;23;20230;-78
2024/03/11 06:19:10;;;;;;;5.17;4.23;;;;;;;;;;6156944;23;20520;-77
2024/03/11 06:21:38;;;;;;;4.33;3.93;;;;;;;;;;6157001;23;20199;-77
2024/03/11 06:24:05;;;;;;;6.90;4.23;;;;;;;;;;6156997;23;20163;-78
2024/03/11 06:26:34;;;;;;;4.97;4.40;;;;;;;;;;6156827;23;20187;-78
2024/03/11 06:29:02;;;;;;;6.23;4.53;;;;;;;;;;6156802;23;20183;-77
2024/03/11 06:31:30;;;;;;;4.97;4.57;;;;;;;;;;6154951;23;20609;-78
2024/03/11 06:33:57;;;;;;;5.50;4.93;;;;;;;;;;6155065;23;20178;-78
2024/03/11 06:36:24;;;;;;;5.03;4.53;;;;;;;;;;6155222;23;20175;-78
2024/03/11 06:38:53;;;;;;;5.63;4.67;;;;;;;;;;6155189;23;20218;-78
2024/03/11 06:41:21;;;;;;;5.17;4.50;;;;;;;;;;6154716;23;20159;-78
2024/03/11 06:43:48;;;;;;;6.40;4.53;;;;;;;;;;6154779;23;20159;-78
2024/03/11 06:46:16;;;;;;;6.97;5.40;;;;;;;;;;6154625;23;20191;-78
2024/03/11 06:48:43;;;;;;;7.83;5.37;;;;;;;;;;6154703;23;20191;-78
2024/03/11 06:51:11;;;;;;;7.37;4.90;;;;;;;;;;6154785;23;20171;-78
2024/03/11 06:53:39;;;;;;;5.67;5.07;;;;;;;;;;6154565;23;20171;-77
2024/03/11 06:56:06;;;;;;;4.73;4.20;;;;;;;;;;6154614;23;20170;-78
2024/03/11 06:58:34;;;;;;;6.37;4.47;;;;;;;;;;6154870;23;20171;-78
2024/03/11 07:01:02;;;;;;;5.73;3.97;;;;;;;;;;6154779;23;20160;-78
2024/03/11 07:03:30;;;;;;;5.03;4.20;;;;;;;;;;6154792;23;20527;-78
2024/03/11 07:05:58;;;;;;;5.43;4.63;;;;;;;;;;6154780;23;20269;-78
2024/03/11 07:08:26;;;;;;;6.70;4.87;;;;;;;;;;6154898;23;20504;-78
2024/03/11 07:10:53;;;;;;;8.57;5.00;;;;;;;;;;6155083;23;20167;-78
2024/03/11 07:13:21;;;;;;;8.77;5.50;;;;;;;;;;6154974;23;20613;-78
2024/03/11 07:15:49;;;;;;;8.57;5.20;;;;;;;;;;6155079;23;20226;-79
2024/03/11 07:18:19;;;;;;;8.53;5.17;;;;;;;;;;6154695;23;20587;-77
2024/03/11 07:20:52;;;;;;;11.20;5.33;;;;;;;;;;6152896;23;20218;-79
2024/03/11 07:23:20;;;;;;;14.43;5.80;;;;;;;;;;6154864;23;20147;-78
2024/03/11 07:25:47;;;;;;;12.07;5.60;;;;;;;;;;6154908;23;20255;-79
2024/03/11 07:28:15;;;;;;;9.70;5.40;;;;;;;;;;6155332;23;20161;-78
2024/03/11 07:30:42;;;;;;;7.10;5.77;;;;;;;;;;6154031;23;20196;-78
2024/03/11 07:33:14;;;;;;;6.87;5.20;;;;;;;;;;6155249;23;20163;-79
2024/03/11 07:35:43;;;;;;;7.10;5.30;;;;;;;;;;6170652;23;20160;-82
2024/03/11 07:38:16;;;;;;;7.60;5.60;;;;;;;;;;6149412;23;20167;-82
2024/03/11 07:41:09;;;;;;;7.07;5.10;;;;;;;;;;6152523;23;20230;-83
2024/03/11 07:43:52;;;;;;;6.33;5.40;;;;;;;;;;6174641;23;20156;-82
2024/03/11 07:46:57;;;;;;;7.60;5.10;;;;;;;;;;6160447;23;20191;-82
2024/03/11 07:49:48;;;;;;;8.60;5.40;;;;;;;;;;6174964;23;20136;-82
2024/03/11 07:53:12;;;;;;;8.13;5.47;;;;;;;;;;6174626;23;20168;-82
2024/03/11 07:56:03;;;;;;;5.30;4.80;;;;;;;;;;6172227;23;20168;-82
2024/03/11 07:59:04;;;;;;;5.73;4.10;;;;;;;;;;6167202;23;20169;-82
2024/03/11 08:01:48;;;;;;;6.00;4.40;;;;;;;;;;6145942;23;20162;-82
2024/03/11 08:04:24;;;;;;;4.87;3.90;;;;;;;;;;6172363;23;20171;-82
2024/03/11 08:07:16;;;;;;;5.40;4.20;;;;;;;;;;6132762;23;20252;-83
2024/03/11 08:10:18;;;;;;;4.53;3.73;;;;;;;;;;6128330;23;20194;-82
2024/03/11 08:13:01;;;;;;;4.30;3.83;;;;;;;;;;6173413;23;20175;-81
2024/03/11 08:15:45;;;;;;;4.17;3.60;;;;;;;;;;6147630;23;20167;-82
2024/03/11 08:18:43;;;;;;;4.40;3.53;;;;;;;;;;6159999;23;20237;-82
2024/03/11 08:21:40;;;;;;;3.90;3.43;;;;;;;;;;6117212;23;20175;-82
2024/03/11 08:24:18;;;;;;;6.17;3.50;;;;;;;;;;6140571;23;20201;-81
2024/03/11 08:30:09;;;;;;;7.70;3.73;;;;;;;;;;6135109;23;20172;-81
2024/03/11 08:32:59;;;;;;;7.00;4.00;;;;;;;;;;6132992;23;20190;-82
2024/03/11 08:35:29;;;;;;;5.70;3.57;;;;;;;;;;6114615;23;20228;-81
2024/03/11 08:38:17;;;;;;;5.33;3.70;;;;;;;;;;6138141;23;20171;-81
2024/03/11 08:40:46;;;;;;;4.47;3.90;;;;;;;;;;6114522;23;20496;-81
2024/03/11 08:43:18;;;;;;;4.87;3.77;;;;;;;;;;6113200;23;20199;-81
2024/03/11 08:45:47;;;;;;;6.17;3.90;;;;;;;;;;6114730;23;20194;-81
2024/03/11 08:48:21;;;;;;;3.90;3.60;;;;;;;;;;6141755;23;20173;-82
2024/03/11 08:50:58;;;;;;;4.20;3.50;;;;;;;;;;6142040;23;20187;-82
2024/03/11 08:53:30;;;;;;;4.07;3.77;;;;;;;;;;6142359;23;20156;-81
2024/03/11 08:56:39;;;;;;;6.93;4.30;;;;;;;;;;6141767;23;20172;-81
2024/03/11 08:59:23;;;;;;;5.53;3.80;;;;;;;;;;6135299;23;20179;-83
2024/03/11 09:30:06;;;;;;;2.70;2.37;;;;;;;;;;6134153;23;20218;-80
2024/03/11 09:32:35;;;;;;;2.93;2.70;;;;;;;;;;6130809;23;20180;-80
2024/03/11 09:35:05;;;;;;;4.57;2.90;;;;;;;;;;6131834;23;20163;-80
2024/03/11 09:37:33;;;;;;;3.57;2.33;;;;;;;;;;6105851;23;20247;-80
2024/03/11 09:40:09;;;;;;;2.30;2.10;;;;;;;;;;6130923;23;20609;-80
2024/03/11 09:42:37;;;;;;;2.50;2.30;;;;;;;;;;6132787;23;20144;-80
2024/03/11 09:45:07;;;;;;;4.43;1.97;;;;;;;;;;6132654;23;20171;-80
2024/03/11 09:47:36;;;;;;;3.23;2.20;;;;;;;;;;6132229;23;20220;-80
2024/03/11 09:50:04;;;;;;;2.27;2.07;;;;;;;;;;6132701;23;20160;-80
2024/03/11 09:52:35;;;;;;;3.10;2.20;;;;;;;;;;6132565;23;20152;-81
2024/03/11 09:55:05;;;;;;;2.20;1.83;;;;;;;;;;6131924;23;20168;-80
2024/03/11 09:57:38;;;;;;;2.20;2.00;;;;;;;;;;6131912;23;20148;-80
2024/03/11 10:00:12;;;;;;;2.20;1.90;;;;;;;;;;6106622;23;20168;-81
2024/03/11 10:02:46;;;;;;;2.20;1.90;;;;;;;;;;6132368;23;20144;-79
2024/03/11 10:05:16;;;;;;;2.70;1.93;;;;;;;;;;6132099;23;20613;-80
2024/03/11 10:07:44;;;;;;;2.50;2.30;;;;;;;;;;6131097;23;20216;-80
2024/03/11 10:10:12;;;;;;;2.53;2.10;;;;;;;;;;6131673;23;20684;-81
2024/03/11 10:12:52;;;;;;;2.40;2.20;;;;;;;;;;6131901;23;20195;-83
2024/03/11 10:15:30;;;;;;;2.60;2.40;;;;;;;;;;6132434;23;20152;-80
2024/03/11 10:18:25;;;;;;;3.67;2.30;;;;;;;;;;6106245;23;20182;-80
2024/03/11 10:20:59;;;;;;;3.23;2.40;;;;;;;;;;6107451;23;20149;-79
2024/03/11 10:23:27;;;;;;;2.30;2.10;;;;;;;;;;6131676;23;20148;-80
2024/03/11 10:26:24;;;;;;;2.37;2.00;;;;;;;;;;6131918;23;20202;-80
2024/03/11 10:28:56;;;;;;;1.93;1.80;;;;;;;;;;6131152;23;20210;-81
2024/03/11 10:31:27;;;;;;;2.50;2.20;;;;;;;;;;6132628;23;20164;-81
2024/03/11 10:34:04;;;;;;;3.37;2.70;;;;;;;;;;6132890;23;20212;-79
2024/03/11 10:36:32;;;;;;;3.97;3.00;;;;;;;;;;6106411;23;20188;-80
2024/03/11 10:39:09;;;;;;;3.80;3.10;;;;;;;;;;6107687;23;20178;-80
2024/03/11 10:41:38;;;;;;;5.33;3.30;;;;;;;;;;6132965;23;20203;-80
2024/03/11 10:44:12;;;;;;;4.43;3.47;;;;;;;;;;6131402;23;20231;-79
2024/03/11 10:46:41;;;;;;;4.13;3.20;;;;;;;;;;6132486;23;20178;-79
2024/03/11 10:49:12;;;;;;;3.60;3.17;;;;;;;;;;6132161;23;20242;-79
2024/03/11 10:51:45;;;;;;;4.20;3.57;;;;;;;;;;6131838;23;20276;-79
2024/03/11 10:54:31;;;;;;;4.07;3.67;;;;;;;;;;6132497;23;20168;-79
2024/03/11 10:57:01;;;;;;;3.90;3.60;;;;;;;;;;6132431;23;20152;-80
2024/03/11 10:59:34;;;;;;;3.90;3.50;;;;;;;;;;6131970;23;20148;-80
2024/03/11 11:02:06;;;;;;;4.07;3.77;;;;;;;;;;6131510;23;20224;-80
2024/03/11 11:04:36;;;;;;;4.40;4.00;;;;;;;;;;6132470;23;20168;-80
2024/03/11 11:07:04;;;;;;;5.43;4.10;;;;;;;;;;6133279;23;20637;-80
2024/03/11 11:09:31;;;;;;;4.63;4.23;;;;;;;;;;6130968;23;20168;-80
2024/03/11 11:12:03;;;;;;;4.53;3.80;;;;;;;;;;6132910;23;20167;-80
2024/03/11 11:14:33;;;;;;;5.30;3.80;;;;;;;;;;6132240;23;20677;-80
2024/03/11 11:17:02;;;;;;;4.77;3.93;;;;;;;;;;6132238;23;20168;-81
2024/03/11 11:19:33;;;;;;;4.30;4.00;;;;;;;;;;6132466;23;20171;-80
2024/03/11 11:22:04;;;;;;;4.47;4.07;;;;;;;;;;6132686;23;20173;-79
2024/03/11 11:24:39;;;;;;;4.20;3.80;;;;;;;;;;6130936;23;20168;-80
2024/03/11 11:27:13;;;;;;;4.93;4.37;;;;;;;;;;6132104;23;20171;-80
2024/03/11 11:29:46;;;;;;;5.67;4.47;;;;;;;;;;6130172;23;20207;-80
2024/03/11 11:32:18;;;;;;;4.40;4.00;;;;;;;;;;6131729;23;20144;-80
2024/03/11 11:34:47;;;;;;;4.50;4.10;;;;;;;;;;6131705;23;20167;-80
2024/03/11 11:37:23;;;;;;;5.53;4.30;;;;;;;;;;6131419;23;20187;-80
2024/03/11 11:39:51;;;;;;;5.47;4.47;;;;;;;;;;6105553;23;20160;-80
2024/03/11 11:42:38;;;;;;;4.37;4.03;;;;;;;;;;6104845;23;20168;-80
2024/03/11 11:45:11;;;;;;;4.37;3.97;;;;;;;;;;6105847;23;20183;-80
2024/03/11 11:47:40;;;;;;;4.50;4.10;;;;;;;;;;6104920;23;20176;-80
2024/03/11 11:50:26;;;;;;;5.80;4.30;;;;;;;;;;6131005;23;20194;-79
2024/03/11 11:52:57;;;;;;;4.00;3.70;;;;;;;;;;6130723;23;20164;-80
2024/03/11 11:55:29;;;;;;;5.03;4.30;;;;;;;;;;6105830;23;20305;-80
2024/03/11 11:58:07;;;;;;;3.93;3.37;;;;;;;;;;6131210;23;20170;-80
2024/03/11 12:00:45;;;;;;;4.27;3.67;;;;;;;;;;6106202;23;20227;-81
2024/03/11 12:03:22;;;;;;;4.17;3.73;;;;;;;;;;6107296;23;20609;-80
2024/03/11 12:06:11;;;;;;;4.53;3.80;;;;;;;;;;6133547;23;20246;-81
2024/03/11 12:08:41;;;;;;;4.00;3.57;;;;;;;;;;6108006;23;20167;-80
2024/03/11 12:11:17;;;;;;;4.60;4.20;;;;;;;;;;6110174;23;20175;-81
2024/03/11 12:13:46;;;;;;;4.30;3.90;;;;;;;;;;6135838;23;20152;-81
2024/03/11 12:16:20;;;;;;;4.30;3.90;;;;;;;;;;6132585;23;20254;-81
2024/03/11 12:19:05;;;;;;;4.13;3.70;;;;;;;;;;6133486;23;20155;-80
2024/03/11 12:21:38;;;;;;;4.00;3.60;;;;;;;;;;6133568;23;20177;-81
2024/03/11 12:24:11;;;;;;;4.57;3.63;;;;;;;;;;6134483;23;20231;-80
2024/03/11 12:26:45;;;;;;;4.47;4.07;;;;;;;;;;6133160;23;20191;-80
2024/03/11 12:29:16;;;;;;;3.97;3.67;;;;;;;;;;6134542;23;20188;-79
2024/03/11 12:31:51;;;;;;;5.03;3.50;;;;;;;;;;6134536;23;20181;-81
2024/03/11 12:34:25;;;;;;;4.70;4.10;;;;;;;;;;6135832;23;20223;-81
2024/03/11 12:36:54;;;;;;;4.27;3.70;;;;;;;;;;6135020;23;20170;-80
2024/03/11 12:39:26;;;;;;;4.50;3.83;;;;;;;;;;6134216;23;20517;-83
2024/03/11 12:41:57;;;;;;;4.80;4.00;;;;;;;;;;6132997;23;20598;-80
2024/03/11 12:44:25;;;;;;;4.93;4.00;;;;;;;;;;6107124;23;20183;-80
2024/03/11 12:46:53;;;;;;;4.40;3.97;;;;;;;;;;6105888;23;20305;-81
2024/03/11 12:49:23;;;;;;;4.27;3.87;;;;;;;;;;6132316;23;20178;-80
2024/03/11 12:52:13;;;;;;;5.80;4.40;;;;;;;;;;6131840;23;20167;-79
2024/03/11 12:54:40;;;;;;;4.23;3.83;;;;;;;;;;6132708;23;20158;-80
2024/03/11 12:57:30;;;;;;;6.77;3.87;;;;;;;;;;6131760;23;20173;-80
2024/03/11 12:59:59;;;;;;;5.77;4.00;;;;;;;;;;6132107;23;20188;-80
2024/03/11 13:02:27;;;;;;;5.00;4.50;;;;;;;;;;6132787;23;20611;-80
2024/03/11 13:05:08;;;;;;;6.80;5.70;;;;;;;;;;6133217;23;20158;-80
2024/03/11 13:07:36;;;;;;;7.80;6.80;;;;;;;;;;6107069;23;20249;-80
2024/03/11 13:10:06;;;;;;;6.00;5.40;;;;;;;;;;6108689;23;20611;-81
2024/03/11 13:12:33;;;;;;;7.10;6.27;;;;;;;;;;6133276;23;20176;-81
2024/03/11 13:15:05;;;;;;;4.70;4.30;;;;;;;;;;6084773;23;20657;-80
2024/03/11 13:17:33;;;;;;;4.77;4.07;;;;;;;;;;6134563;23;20173;-80
2024/03/11 13:20:03;;;;;;;4.07;3.67;;;;;;;;;;6109779;23;20174;-80
2024/03/11 13:22:33;;;;;;;4.03;3.73;;;;;;;;;;6134784;23;20224;-80
2024/03/11 13:25:06;;;;;;;4.63;3.87;;;;;;;;;;6135385;23;20612;-81
2024/03/11 13:27:36;;;;;;;4.23;3.77;;;;;;;;;;6109213;23;20198;-81
2024/03/11 13:30:23;;;;;;;4.13;3.23;;;;;;;;;;6111248;23;20204;-82
2024/03/11 13:33:15;;;;;;;3.33;2.77;;;;;;;;;;6110294;23;20155;-81
2024/03/11 13:35:47;;;;;;;5.50;4.77;;;;;;;;;;6135048;23;20164;-81
2024/03/11 13:38:19;;;;;;;4.70;4.30;;;;;;;;;;6135794;23;20151;-81
2024/03/11 13:40:49;;;;;;;4.83;4.23;;;;;;;;;;6134516;23;20192;-81
2024/03/11 13:43:23;;;;;;;5.77;3.97;;;;;;;;;;6134747;23;20168;-81
2024/03/11 13:45:51;;;;;;;7.27;3.73;;;;;;;;;;6108791;23;20171;-80
2024/03/11 13:48:24;;;;;;;4.97;3.73;;;;;;;;;;6111397;23;20240;-80
2024/03/11 13:50:56;;;;;;;5.47;3.87;;;;;;;;;;6109915;23;20168;-81
2024/03/11 13:53:29;;;;;;;3.87;3.57;;;;;;;;;;6111341;23;20158;-81
2024/03/11 13:56:04;;;;;;;4.70;4.20;;;;;;;;;;6137037;23;20173;-81
2024/03/11 13:58:36;;;;;;;6.23;5.63;;;;;;;;;;6138713;23;20236;-82
2024/03/11 14:01:07;;;;;;;7.77;6.30;;;;;;;;;;6137649;23;20166;-81
2024/03/11 14:03:40;;;;;;;9.90;6.90;;;;;;;;;;6135971;23;20180;-80
2024/03/11 14:06:12;;;;;;;8.33;7.43;;;;;;;;;;6135917;23;20605;-80
2024/03/11 14:08:40;;;;;;;9.93;7.83;;;;;;;;;;6135664;23;20180;-80
2024/03/11 14:11:10;;;;;;;8.57;7.03;;;;;;;;;;6136174;23;20187;-80
2024/03/11 14:13:38;;;;;;;8.83;7.30;;;;;;;;;;6135446;23;20193;-81
2024/03/11 14:16:05;;;;;;;9.67;7.40;;;;;;;;;;6134045;23;20168;-80
2024/03/11 14:18:34;;;;;;;8.90;7.30;;;;;;;;;;6135715;23;20168;-79
2024/03/11 14:21:04;;;;;;;10.17;7.90;;;;;;;;;;6135708;23;20224;-80
2024/03/11 14:23:33;;;;;;;8.93;7.53;;;;;;;;;;6135094;23;20179;-80
2024/03/11 14:26:01;;;;;;;7.20;6.50;;;;;;;;;;6133825;23;20168;-80
2024/03/11 14:28:29;;;;;;;8.13;6.97;;;;;;;;;;6135921;23;20215;-79
2024/03/11 14:31:02;;;;;;;7.87;6.57;;;;;;;;;;6135206;23;20267;-82
2024/03/11 14:33:31;;;;;;;7.40;6.60;;;;;;;;;;6110013;23;20172;-80
2024/03/11 14:36:00;;;;;;;6.63;5.77;;;;;;;;;;6109796;23;20178;-81
2024/03/11 14:38:31;;;;;;;6.83;6.13;;;;;;;;;;6134887;23;20195;-80
2024/03/11 14:40:58;;;;;;;8.90;6.27;;;;;;;;;;6134197;23;20169;-81
2024/03/11 14:43:31;;;;;;;7.33;5.90;;;;;;;;;;6109702;23;20161;-80
2024/03/11 14:46:03;;;;;;;7.53;6.60;;;;;;;;;;6134840;23;20167;-81
2024/03/11 14:48:32;;;;;;;8.27;6.83;;;;;;;;;;6135541;23;20180;-83
2024/03/11 14:51:07;;;;;;;8.40;7.60;;;;;;;;;;6108560;23;20191;-80
2024/03/11 14:53:34;;;;;;;9.47;7.33;;;;;;;;;;6135491;23;20491;-82
2024/03/11 14:56:04;;;;;;;9.30;7.83;;;;;;;;;;6134586;23;20185;-80
2024/03/11 14:58:34;;;;;;;9.30;8.30;;;;;;;;;;6137157;23;20247;-82
2024/03/11 15:01:03;;;;;;;8.40;7.27;;;;;;;;;;6138817;23;20160;-82
2024/03/11 15:03:36;;;;;;;7.97;7.20;;;;;;;;;;6138474;23;20172;-82
2024/03/11 15:06:10;;;;;;;7.87;7.17;;;;;;;;;;6138802;23;20148;-82
2024/03/11 15:08:40;;;;;;;7.47;6.77;;;;;;;;;;6113360;23;20179;-82
2024/03/11 15:11:16;;;;;;;7.50;6.73;;;;;;;;;;6137703;23;20160;-83
2024/03/11 15:13:46;;;;;;;7.37;6.67;;;;;;;;;;6139790;23;20228;-83
2024/03/11 15:16:18;;;;;;;7.87;7.07;;;;;;;;;;6112968;23;20625;-83
2024/03/11 15:18:53;;;;;;;7.40;6.70;;;;;;;;;;6140474;23;20159;-82
2024/03/11 15:21:22;;;;;;;7.70;7.00;;;;;;;;;;6140123;23;20178;-83
2024/03/11 15:23:52;;;;;;;8.53;7.00;;;;;;;;;;6138374;23;20164;-83
2024/03/11 15:26:22;;;;;;;8.00;7.20;;;;;;;;;;6115734;23;20172;-83
2024/03/11 15:28:55;;;;;;;7.97;7.27;;;;;;;;;;6139682;23;20211;-83
2024/03/11 15:31:28;;;;;;;8.33;7.57;;;;;;;;;;6142844;23;20164;-83
2024/03/11 15:34:01;;;;;;;9.80;8.50;;;;;;;;;;6142921;23;20168;-83
2024/03/11 15:36:37;;;;;;;11.53;10.33;;;;;;;;;;6095659;23;20167;-83
2024/03/11 15:39:22;;;;;;;10.63;9.67;;;;;;;;;;6117395;23;20160;-83